Time;durP1;ratioP1;P1;durP2;ratioP2;P2;SDS_P1;SDS_P2;PMS_P1;PMS_P2;Temp;Humidity;BMP_temperature;BMP_pressure;BME280_temperature;BME280_humidity;BME280_pressure;Samples;Min_cycle;Max_cycle;Signal;HPM_P1;HPM_P2
2022/12/08 00:00:24;;;;;;;10.57;5.05;;;8.90;51.00;;;;;;6221327;28;20053;-81
2022/12/08 00:03:26;;;;;;;14.10;5.35;;;8.90;51.00;;;;;;6223558;28;20394;-81
2022/12/08 00:09:54;;;;;;;13.68;4.97;;;8.80;50.90;;;;;;6246420;28;20465;-81
2022/12/08 00:12:55;;;;;;;14.23;4.45;;;8.80;51.00;;;;;;6246815;28;20057;-81
2022/12/08 00:15:59;;;;;;;14.52;6.13;;;8.70;51.00;;;;;;6245010;28;20083;-81
2022/12/08 00:19:01;;;;;;;12.80;5.63;;;8.70;51.20;;;;;;6244064;28;20037;-81
2022/12/08 00:22:02;;;;;;;12.35;5.18;;;8.70;51.30;;;;;;6244527;28;20124;-81
2022/12/08 00:25:03;;;;;;;13.93;5.25;;;8.70;51.30;;;;;;6247211;28;20077;-81
2022/12/08 00:28:04;;;;;;;11.07;4.40;;;8.70;51.30;;;;;;6246031;28;20033;-81
2022/12/08 00:31:10;;;;;;;9.35;5.10;;;8.70;51.10;;;;;;6239708;28;20056;-82
2022/12/08 00:34:12;;;;;;;10.02;4.82;;;8.70;51.10;;;;;;6223463;28;20454;-82
2022/12/08 00:37:13;;;;;;;12.32;5.32;;;8.70;51.20;;;;;;6243948;28;20045;-81
2022/12/08 00:40:14;;;;;;;10.90;4.82;;;8.70;51.10;;;;;;6238254;28;20445;-82
2022/12/08 00:43:15;;;;;;;10.98;4.30;;;8.70;51.10;;;;;;6227456;28;20084;-82
2022/12/08 00:46:16;;;;;;;7.45;4.20;;;8.70;51.10;;;;;;6259113;28;20417;-81
2022/12/08 00:49:17;;;;;;;14.77;4.53;;;8.70;51.10;;;;;;6243099;28;20049;-82
2022/12/08 00:52:18;;;;;;;9.93;4.70;;;8.70;50.90;;;;;;6227202;28;20076;-83
2022/12/08 00:55:19;;;;;;;14.50;5.32;;;8.70;51.00;;;;;;6200527;28;20030;-81
2022/12/08 00:58:20;;;;;;;11.75;5.13;;;8.70;51.00;;;;;;6218953;28;20041;-81
2022/12/08 01:01:21;;;;;;;13.82;5.30;;;8.70;51.00;;;;;;6240083;28;20034;-82
2022/12/08 01:04:22;;;;;;;9.23;4.93;;;8.70;51.00;;;;;;6220575;28;20404;-81
2022/12/08 01:07:23;;;;;;;15.60;4.97;;;8.60;50.90;;;;;;6241089;28;20034;-81
2022/12/08 01:10:23;;;;;;;11.75;4.95;;;8.70;51.00;;;;;;6258411;28;20115;-80
2022/12/08 01:13:24;;;;;;;10.35;4.72;;;8.60;51.10;;;;;;6235133;28;20091;-80
2022/12/08 01:16:28;;;;;;;12.25;4.13;;;8.70;51.10;;;;;;6244646;28;20417;-80
2022/12/08 01:19:29;;;;;;;8.93;3.63;;;8.70;51.00;;;;;;6261022;28;20124;-80
2022/12/08 01:22:33;;;;;;;8.60;4.43;;;8.70;50.80;;;;;;6239491;28;20091;-81
2022/12/08 01:25:34;;;;;;;11.68;5.30;;;8.60;50.70;;;;;;6243852;28;20037;-80
2022/12/08 01:28:35;;;;;;;8.75;4.25;;;8.60;50.70;;;;;;6245545;28;20040;-80
2022/12/08 01:31:36;;;;;;;13.65;4.80;;;8.50;51.40;;;;;;6258164;28;20842;-81
2022/12/08 01:34:37;;;;;;;8.38;3.83;;;8.50;50.90;;;;;;6243631;28;20111;-80
2022/12/08 01:37:38;;;;;;;8.45;4.72;;;8.50;50.70;;;;;;6244866;28;20045;-80
2022/12/08 01:40:39;;;;;;;10.57;4.95;;;8.50;50.80;;;;;;6237079;28;20042;-80
2022/12/08 01:43:58;;;;;;;17.55;4.60;;;8.50;51.30;;;;;;6253008;28;20410;-81
2022/12/08 01:46:59;;;;;;;;;;;8.40;50.70;;;;;;6231763;28;20063;-80
2022/12/08 01:50:01;;;;;;;7.45;4.18;;;8.40;50.80;;;;;;6257192;28;19920;-80
2022/12/08 01:53:09;;;;;;;10.60;5.38;;;8.40;50.80;;;;;;6257346;28;20382;-80
2022/12/08 01:56:19;;;;;;;13.52;4.40;;;8.40;50.90;;;;;;6200863;28;20514;-80
2022/12/08 01:59:21;;;;;;;11.15;4.85;;;8.40;50.90;;;;;;6233495;28;20091;-81
2022/12/08 02:02:30;;;;;;;12.75;4.65;;;8.40;50.80;;;;;;6204034;28;20040;-80
2022/12/08 02:05:35;;;;;;;13.80;4.95;;;8.30;50.80;;;;;;6235304;28;20038;-81
2022/12/08 02:08:39;;;;;;;11.02;4.82;;;8.30;50.90;;;;;;6216579;28;20040;-81
2022/12/08 02:11:39;;;;;;;9.95;4.28;;;8.30;50.90;;;;;;6220760;28;20473;-82
2022/12/08 02:14:40;;;;;;;11.75;4.60;;;8.30;51.00;;;;;;6259246;28;20041;-82
2022/12/08 02:18:10;;;;;;;7.65;3.72;;;8.30;50.80;;;;;;6258484;28;20052;-79
2022/12/08 02:21:29;;;;;;;;;;;8.30;50.80;;;;;;6250717;28;20038;-80
2022/12/08 02:24:37;;;;;;;6.10;2.47;;;8.30;50.80;;;;;;6239486;28;19922;-80
2022/12/08 02:27:56;;;;;;;9.10;4.43;;;8.20;50.90;;;;;;6229683;28;20124;-80
2022/12/08 02:31:17;;;;;;;13.18;4.72;;;8.20;51.00;;;;;;6250406;28;20041;-79
2022/12/08 02:34:25;;;;;;;9.20;4.32;;;8.20;51.10;;;;;;6254711;28;20037;-80
2022/12/08 02:37:53;;;;;;;9.35;4.05;;;8.20;51.10;;;;;;6249657;28;20124;-81
2022/12/08 02:41:24;;;;;;;11.10;4.38;;;8.30;51.20;;;;;;6219836;28;20038;-80
2022/12/08 02:44:42;;;;;;;8.77;4.63;;;8.30;51.20;;;;;;6234983;28;20053;-82
2022/12/08 02:47:44;;;;;;;6.90;3.55;;;8.30;51.20;;;;;;6218242;28;20033;-80
2022/12/08 02:50:44;;;;;;;9.85;5.35;;;8.30;51.10;;;;;;6234556;28;20038;-83
2022/12/08 02:53:47;;;;;;;11.30;4.25;;;8.40;51.00;;;;;;6221660;28;20049;-82
2022/12/08 02:56:51;;;;;;;9.15;4.25;;;8.40;51.00;;;;;;6224892;28;20040;-81
2022/12/08 03:00:09;;;;;;;13.05;5.13;;;8.40;51.00;;;;;;6236285;28;20030;-81
2022/12/08 03:03:23;;;;;;;10.23;4.78;;;8.40;50.90;;;;;;6235435;28;20183;-81
2022/12/08 03:06:45;;;;;;;7.15;3.65;;;8.30;50.90;;;;;;6232479;28;20368;-81
2022/12/08 03:09:55;;;;;;;8.50;3.88;;;8.30;51.10;;;;;;6238235;28;20048;-81
2022/12/08 03:13:07;;;;;;;10.27;4.53;;;8.20;51.20;;;;;;6228199;28;20120;-80
2022/12/08 03:16:09;;;;;;;11.93;4.53;;;8.30;51.20;;;;;;6258110;28;20520;-81
2022/12/08 03:19:36;;;;;;;10.10;4.72;;;8.30;51.20;;;;;;6246173;28;20041;-80
2022/12/08 03:22:39;;;;;;;9.57;4.57;;;8.30;51.20;;;;;;6222361;28;20111;-81
2022/12/08 03:25:47;;;;;;;7.43;3.67;;;8.30;51.10;;;;;;6221984;28;20034;-81
2022/12/08 03:28:48;;;;;;;10.93;4.55;;;8.30;51.20;;;;;;6212965;28;20192;-82
2022/12/08 03:31:57;;;;;;;6.78;3.60;;;8.30;51.00;;;;;;6208656;28;20070;-82
2022/12/08 03:35:01;;;;;;;13.20;4.13;;;8.30;51.00;;;;;;6234623;28;20129;-82
2022/12/08 03:38:10;;;;;;;10.60;4.18;;;8.20;51.00;;;;;;6219606;28;20486;-81
2022/12/08 03:41:18;;;;;;;9.30;4.50;;;8.20;51.00;;;;;;6235553;28;20514;-81
2022/12/08 03:44:18;;;;;;;5.20;3.15;;;8.10;51.00;;;;;;6252732;28;20033;-81
2022/12/08 03:47:19;;;;;;;8.65;4.55;;;8.10;51.70;;;;;;6246195;28;20029;-81
2022/12/08 03:50:20;;;;;;;13.02;4.28;;;8.00;51.10;;;;;;6249171;28;20129;-81
2022/12/08 03:53:21;;;;;;;9.52;3.70;;;8.00;51.20;;;;;;6244042;28;20120;-83
2022/12/08 03:56:27;;;;;;;5.28;3.15;;;8.00;51.20;;;;;;6244550;28;20044;-80
2022/12/08 03:59:28;;;;;;;6.65;3.53;;;8.00;51.30;;;;;;6236689;28;20124;-81
2022/12/08 04:02:29;;;;;;;7.65;3.75;;;8.00;51.30;;;;;;6230611;28;20044;-80
2022/12/08 04:05:30;;;;;;;8.15;4.03;;;8.00;51.20;;;;;;6258791;28;20056;-80
2022/12/08 04:08:32;;;;;;;6.72;2.85;;;7.90;51.30;;;;;;6261076;28;20038;-80
2022/12/08 04:11:33;;;;;;;6.75;3.80;;;8.00;51.30;;;;;;6244548;28;20060;-81
2022/12/08 04:14:33;;;;;;;10.27;4.22;;;8.00;51.30;;;;;;6243630;28;20045;-81
2022/12/08 04:17:34;;;;;;;8.52;3.70;;;8.00;51.40;;;;;;6259450;28;20073;-81
2022/12/08 04:20:39;;;;;;;9.23;4.07;;;8.00;51.30;;;;;;6260403;28;20033;-81
2022/12/08 04:23:41;;;;;;;7.70;3.90;;;8.10;51.40;;;;;;6259676;28;20117;-81
2022/12/08 04:26:42;;;;;;;5.95;3.15;;;8.10;51.30;;;;;;6227474;28;20030;-81
2022/12/08 04:29:42;;;;;;;5.90;3.25;;;8.10;51.20;;;;;;6259699;28;20033;-82
2022/12/08 04:32:43;;;;;;;4.05;2.88;;;8.10;51.00;;;;;;6209620;28;20552;-81
2022/12/08 04:35:44;;;;;;;6.18;2.92;;;8.10;51.00;;;;;;6240339;28;20120;-83
2022/12/08 04:38:45;;;;;;;6.88;3.00;;;8.10;51.00;;;;;;6259155;28;20029;-82
2022/12/08 04:41:46;;;;;;;6.93;2.92;;;8.00;51.00;;;;;;6263209;28;20472;-82
2022/12/08 04:44:47;;;;;;;6.55;3.60;;;8.00;50.70;;;;;;6247954;28;20033;-82
2022/12/08 04:47:48;;;;;;;4.30;2.60;;;7.90;50.70;;;;;;6260887;28;20030;-82
2022/12/08 04:50:48;;;;;;;7.80;3.63;;;7.90;50.80;;;;;;6261626;28;20025;-81
2022/12/08 04:53:49;;;;;;;6.22;3.67;;;7.90;50.90;;;;;;6261020;28;20498;-81
2022/12/08 04:56:50;;;;;;;5.28;3.05;;;7.90;50.90;;;;;;6245585;28;20065;-81
2022/12/08 04:59:52;;;;;;;7.30;3.60;;;7.80;50.90;;;;;;6245407;28;20045;-81
2022/12/08 05:02:53;;;;;;;7.95;3.85;;;7.80;51.00;;;;;;6243884;28;20045;-82
2022/12/08 05:05:54;;;;;;;9.05;4.30;;;7.80;50.90;;;;;;6242786;28;20037;-82
2022/12/08 05:08:55;;;;;;;10.57;3.75;;;7.80;51.00;;;;;;6219722;28;20034;-83
2022/12/08 05:11:56;;;;;;;10.45;3.58;;;7.80;51.10;;;;;;6244481;28;20037;-81
2022/12/08 05:14:56;;;;;;;6.70;3.50;;;7.80;51.10;;;;;;6257685;28;20068;-81
2022/12/08 05:17:58;;;;;;;6.60;3.17;;;7.80;51.00;;;;;;6248879;28;20049;-81
2022/12/08 05:21:00;;;;;;;7.65;3.17;;;7.80;51.10;;;;;;6213918;28;20046;-81
2022/12/08 05:24:00;;;;;;;8.07;3.13;;;7.70;51.00;;;;;;6241401;28;20041;-80
2022/12/08 05:27:02;;;;;;;8.20;3.75;;;7.70;51.00;;;;;;6248925;28;20390;-81
2022/12/08 05:30:03;;;;;;;6.75;3.70;;;7.70;51.10;;;;;;6243926;28;20053;-80
2022/12/08 05:33:04;;;;;;;9.43;4.28;;;7.50;51.20;;;;;;6244273;28;20056;-81
2022/12/08 05:36:06;;;;;;;8.38;4.43;;;7.60;51.30;;;;;;6247245;28;20037;-81
2022/12/08 05:39:11;;;;;;;9.93;3.65;;;7.60;51.30;;;;;;6243634;28;20033;-82
2022/12/08 05:42:12;;;;;;;7.43;3.33;;;7.60;51.40;;;;;;6220467;28;20044;-82
2022/12/08 05:45:13;;;;;;;8.40;3.88;;;7.60;51.40;;;;;;6220096;28;20038;-83
2022/12/08 05:48:14;;;;;;;7.95;3.95;;;7.60;51.30;;;;;;6229415;28;20044;-81
2022/12/08 05:51:21;;;;;;;6.05;3.75;;;7.60;51.30;;;;;;6260818;28;20037;-82
2022/12/08 05:54:22;;;;;;;7.20;4.13;;;7.50;51.40;;;;;;6242709;28;20041;-81
2022/12/08 05:57:23;;;;;;;8.43;4.18;;;7.50;51.40;;;;;;6249111;28;20530;-81
2022/12/08 06:00:25;;;;;;;6.32;3.60;;;7.50;51.50;;;;;;6234689;28;20044;-81
2022/12/08 06:03:26;;;;;;;5.45;3.00;;;7.40;51.60;;;;;;6240161;28;20041;-83
2022/12/08 06:06:27;;;;;;;7.45;3.67;;;7.40;51.60;;;;;;6248349;28;20052;-83
2022/12/08 06:09:28;;;;;;;7.00;3.47;;;7.30;51.60;;;;;;6246656;28;20530;-82
2022/12/08 06:12:29;;;;;;;6.18;3.40;;;7.30;51.60;;;;;;6245464;28;20040;-82
2022/12/08 06:15:30;;;;;;;7.55;4.13;;;7.30;51.70;;;;;;6245199;28;20386;-81
2022/12/08 06:18:31;;;;;;;29.25;4.10;;;7.30;51.70;;;;;;6259975;28;20025;-82
2022/12/08 06:21:32;;;;;;;10.18;3.67;;;7.30;51.70;;;;;;6251501;28;20037;-81
2022/12/08 06:24:33;;;;;;;7.05;3.45;;;7.20;51.70;;;;;;6243951;28;20129;-81
2022/12/08 06:27:34;;;;;;;7.95;4.53;;;7.20;51.80;;;;;;6260366;28;20026;-81
2022/12/08 06:30:36;;;;;;;11.90;4.57;;;7.20;51.90;;;;;;6252360;28;20394;-82
2022/12/08 06:33:38;;;;;;;8.68;4.22;;;7.20;51.90;;;;;;6263253;28;20900;-81
2022/12/08 06:36:39;;;;;;;10.35;3.22;;;7.10;51.80;;;;;;6236532;28;20781;-81
2022/12/08 06:39:40;;;;;;;6.22;3.47;;;7.10;51.90;;;;;;6222919;28;20037;-82
2022/12/08 06:42:43;;;;;;;11.38;4.18;;;7.10;52.00;;;;;;6226419;28;20042;-83
2022/12/08 06:45:44;;;;;;;6.63;3.55;;;7.10;52.10;;;;;;6204841;28;20108;-82
2022/12/08 06:48:45;;;;;;;9.50;3.97;;;7.10;52.10;;;;;;6261906;28;20462;-83
2022/12/08 06:51:46;;;;;;;8.77;4.55;;;7.10;52.20;;;;;;6252391;28;20045;-82
2022/12/08 06:54:47;;;;;;;10.57;4.68;;;7.00;52.20;;;;;;6238817;28;20038;-80
2022/12/08 06:57:47;;;;;;;9.70;5.13;;;7.10;52.30;;;;;;6235239;28;20129;-80
2022/12/08 07:00:48;;;;;;;7.35;4.45;;;7.00;52.20;;;;;;6237606;28;20038;-81
2022/12/08 07:03:49;;;;;;;8.90;4.05;;;7.00;52.10;;;;;;6246413;28;20056;-82
2022/12/08 07:06:50;;;;;;;9.80;4.25;;;7.00;52.10;;;;;;6246899;28;20037;-82
2022/12/08 07:09:51;;;;;;;8.85;4.05;;;7.00;52.10;;;;;;6261037;28;20040;-81
2022/12/08 07:12:52;;;;;;;14.13;4.40;;;6.90;52.20;;;;;;6258541;28;20048;-81
2022/12/08 07:15:53;;;;;;;7.60;3.67;;;6.90;52.40;;;;;;6245509;28;20045;-81
2022/12/08 07:18:54;;;;;;;7.20;3.45;;;6.90;52.50;;;;;;6262665;28;20077;-81
2022/12/08 07:21:55;;;;;;;9.85;4.25;;;6.90;52.40;;;;;;6246294;28;20395;-81
2022/12/08 07:24:55;;;;;;;9.75;3.33;;;6.90;52.40;;;;;;6245423;28;20045;-81
2022/12/08 07:27:57;;;;;;;10.48;3.55;;;7.00;52.50;;;;;;6262996;28;20344;-81
2022/12/08 07:30:58;;;;;;;17.30;4.70;;;7.00;52.30;;;;;;6246407;28;20083;-82
2022/12/08 07:33:59;;;;;;;9.38;4.18;;;7.00;52.00;;;;;;6263472;28;20025;-81
2022/12/08 07:37:01;;;;;;;8.00;3.72;;;6.90;52.00;;;;;;6262591;28;20048;-81
2022/12/08 07:40:03;;;;;;;8.93;4.10;;;6.80;52.10;;;;;;6247304;28;20462;-82
2022/12/08 07:43:04;;;;;;;9.52;3.58;;;6.80;52.20;;;;;;6256211;28;20033;-82
2022/12/08 07:46:05;;;;;;;12.27;4.35;;;6.70;52.30;;;;;;6246294;28;20047;-81
2022/12/08 07:49:06;;;;;;;6.60;3.63;;;6.70;52.40;;;;;;6246874;28;20036;-82
2022/12/08 07:52:07;;;;;;;8.55;3.28;;;6.70;52.50;;;;;;6245546;28;20045;-81
2022/12/08 07:55:08;;;;;;;6.00;3.03;;;6.70;52.60;;;;;;6232545;28;20348;-82
2022/12/08 07:58:10;;;;;;;7.60;3.78;;;6.70;52.60;;;;;;6231734;28;20054;-82
2022/12/08 08:01:26;;;;;;;9.60;4.65;;;6.70;52.70;;;;;;6239699;28;20041;-84
2022/12/08 08:04:27;;;;;;;10.30;3.70;;;6.70;52.80;;;;;;6234201;28;20121;-82
2022/12/08 08:07:30;;;;;;;12.13;3.88;;;6.70;52.90;;;;;;6219534;28;20149;-81
2022/12/08 08:10:31;;;;;;;8.45;4.32;;;6.60;53.00;;;;;;6219086;28;20038;-81
2022/12/08 08:13:33;;;;;;;11.07;4.30;;;6.60;53.00;;;;;;6221242;28;20515;-83
2022/12/08 08:16:34;;;;;;;9.40;4.18;;;6.70;53.10;;;;;;6228151;28;20034;-82
2022/12/08 08:19:37;;;;;;;10.32;4.03;;;6.70;53.10;;;;;;6244814;28;20385;-83
2022/12/08 08:22:40;;;;;;;10.07;4.43;;;6.70;53.10;;;;;;6244241;28;20033;-82
2022/12/08 08:25:41;;;;;;;23.35;4.53;;;6.80;53.00;;;;;;6245396;28;20458;-81
2022/12/08 08:28:44;;;;;;;7.80;3.90;;;6.90;53.00;;;;;;6246891;28;20052;-82
2022/12/08 08:31:46;;;;;;;10.10;4.70;;;6.90;52.90;;;;;;6245263;28;20041;-82
2022/12/08 08:34:50;;;;;;;6.75;3.78;;;6.90;52.90;;;;;;6246020;28;20040;-81
2022/12/08 08:37:53;;;;;;;14.85;4.07;;;6.90;52.90;;;;;;6220348;28;20053;-82
2022/12/08 08:40:55;;;;;;;9.25;4.20;;;7.00;53.00;;;;;;6234777;28;20037;-83
2022/12/08 08:43:55;;;;;;;9.27;4.47;;;7.00;52.80;;;;;;6229895;28;20036;-84
2022/12/08 08:46:58;;;;;;;8.20;4.07;;;7.00;52.90;;;;;;6241394;28;20077;-81
2022/12/08 08:50:02;;;;;;;18.00;4.93;;;7.00;52.80;;;;;;6243808;28;20045;-82
2022/12/08 08:53:03;;;;;;;10.80;4.05;;;7.00;52.90;;;;;;6194644;28;20042;-82
2022/12/08 08:56:15;;;;;;;11.98;5.07;;;7.10;52.80;;;;;;6205430;28;20050;-81
2022/12/08 08:59:16;;;;;;;9.98;4.30;;;7.10;53.50;;;;;;6222086;28;20055;-82
2022/12/08 09:02:18;;;;;;;7.30;4.22;;;7.10;52.90;;;;;;6244115;28;20371;-82
2022/12/08 09:05:19;;;;;;;9.65;4.50;;;7.20;52.90;;;;;;6259345;28;20045;-83
2022/12/08 09:08:20;;;;;;;8.57;3.65;;;7.20;52.80;;;;;;6259241;28;20041;-83
2022/12/08 09:11:22;;;;;;;9.77;4.55;;;7.30;52.70;;;;;;6245732;28;20458;-83
2022/12/08 09:14:25;;;;;;;12.20;3.92;;;7.40;52.60;;;;;;6243363;28;20053;-81
2022/12/08 09:17:27;;;;;;;13.77;4.22;;;7.40;52.50;;;;;;6247918;28;20049;-83
2022/12/08 09:20:30;;;;;;;8.68;4.55;;;7.40;52.40;;;;;;6261393;28;20034;-82
2022/12/08 09:23:31;;;;;;;9.50;4.75;;;7.50;52.40;;;;;;6263017;28;20042;-83
2022/12/08 09:26:31;;;;;;;14.93;4.25;;;7.60;52.30;;;;;;6261945;28;20087;-82
2022/12/08 09:29:33;;;;;;;14.00;5.35;;;7.60;52.10;;;;;;6244967;28;20045;-83
2022/12/08 09:32:34;;;;;;;10.85;5.10;;;7.60;52.10;;;;;;6230271;28;20045;-82
2022/12/08 09:35:36;;;;;;;16.15;6.53;;;7.70;52.00;;;;;;6245761;28;20037;-84
2022/12/08 09:38:38;;;;;;;11.43;5.68;;;7.70;52.00;;;;;;6260446;28;20454;-82
2022/12/08 09:41:48;;;;;;;16.10;5.63;;;7.70;51.90;;;;;;6239145;28;20529;-82
2022/12/08 09:45:10;;;;;;;15.07;6.05;;;7.80;51.90;;;;;;6245743;28;20058;-82
2022/12/08 09:48:16;;;;;;;28.80;7.25;;;7.90;52.00;;;;;;6257543;28;20132;-82
2022/12/08 09:51:17;;;;;;;17.63;6.60;;;8.00;52.00;;;;;;6241274;28;20091;-81
2022/12/08 09:54:29;;;;;;;20.25;6.53;;;8.10;51.80;;;;;;6257804;28;20091;-84
2022/12/08 09:57:30;;;;;;;15.18;8.07;;;8.40;51.80;;;;;;6258456;28;20091;-82
2022/12/08 10:00:32;;;;;;;27.98;6.50;;;8.60;51.40;;;;;;6240643;28;20041;-82
2022/12/08 10:03:34;;;;;;;17.23;6.75;;;8.90;51.30;;;;;;6244508;28;20053;-82
2022/12/08 10:06:49;;;;;;;17.35;7.38;;;9.10;51.00;;;;;;6243534;28;20443;-83
2022/12/08 10:09:59;;;;;;;18.50;7.90;;;9.20;50.40;;;;;;6244324;28;20512;-83
2022/12/08 10:13:23;;;;;;;25.30;8.13;;;9.40;49.90;;;;;;6217350;28;20037;-83
2022/12/08 10:16:35;;;;;;;15.55;6.72;;;9.40;49.70;;;;;;6207754;28;20049;-81
2022/12/08 10:19:39;;;;;;;16.92;6.60;;;9.50;49.30;;;;;;6208043;28;20034;-82
2022/12/08 10:22:40;;;;;;;18.08;6.57;;;9.60;49.30;;;;;;6189425;28;20057;-82
2022/12/08 10:25:47;;;;;;;28.60;7.90;;;9.60;49.00;;;;;;6221016;28;20509;-82
2022/12/08 10:28:48;;;;;;;22.38;6.95;;;9.70;49.10;;;;;;6245885;28;20038;-82
2022/12/08 10:31:51;;;;;;;16.85;7.55;;;9.80;48.90;;;;;;6233068;28;20052;-82
2022/12/08 10:35:21;;;;;;;16.33;6.70;;;9.90;48.60;;;;;;6239344;28;20057;-82
2022/12/08 10:38:30;;;;;;;17.05;7.50;;;10.00;48.10;;;;;;6163887;28;20039;-82
2022/12/08 10:41:31;;;;;;;;;;;10.10;48.10;;;;;;6171818;28;20034;-81
2022/12/08 10:44:32;;;;;;;16.95;6.38;;;10.10;48.50;;;;;;6175547;28;19925;-82
2022/12/08 10:47:40;;;;;;;15.38;6.50;;;10.10;47.70;;;;;;6168769;28;20162;-81
2022/12/08 10:50:49;;;;;;;15.27;6.88;;;10.10;47.90;;;;;;6167264;28;20101;-82
2022/12/08 10:53:50;;;;;;;14.45;7.03;;;10.20;47.80;;;;;;6167309;28;20035;-82
2022/12/08 10:56:56;;;;;;;21.33;8.27;;;10.20;47.70;;;;;;6158756;28;20046;-81
2022/12/08 10:59:57;;;;;;;17.02;6.95;;;10.20;47.50;;;;;;6126840;28;20058;-83
2022/12/08 11:03:03;;;;;;;17.65;8.57;;;10.20;47.50;;;;;;6167254;28;20070;-81
2022/12/08 11:06:30;;;;;;;23.90;8.75;;;10.30;47.60;;;;;;6169643;28;20038;-82
2022/12/08 11:09:39;;;;;;;18.52;8.65;;;10.30;47.60;;;;;;6171758;28;20042;-81
2022/12/08 11:12:43;;;;;;;20.40;8.20;;;10.40;47.70;;;;;;6177754;28;20039;-81
2022/12/08 11:15:45;;;;;;;22.15;9.02;;;10.50;47.60;;;;;;6230428;28;20045;-83
2022/12/08 11:18:55;;;;;;;40.15;11.25;;;10.50;47.60;;;;;;6243816;28;20034;-83
2022/12/08 11:21:56;;;;;;;20.10;8.75;;;10.60;47.60;;;;;;6242888;28;20480;-82
2022/12/08 11:25:17;;;;;;;20.02;8.60;;;10.70;47.40;;;;;;6241815;28;20041;-81
2022/12/08 11:28:22;;;;;;;25.05;8.13;;;10.70;47.00;;;;;;6260035;28;20033;-82
2022/12/08 11:31:48;;;;;;;20.08;9.27;;;10.60;46.70;;;;;;6219328;28;20045;-82
2022/12/08 11:34:59;;;;;;;17.02;7.90;;;10.40;46.80;;;;;;6215222;28;20053;-85
2022/12/08 11:38:05;;;;;;;19.92;8.13;;;10.30;47.00;;;;;;6223158;28;20095;-82
2022/12/08 11:41:09;;;;;;;37.60;13.63;;;10.30;47.20;;;;;;6205143;28;20034;-83
2022/12/08 11:44:32;;;;;;;30.05;10.30;;;10.40;47.20;;;;;;6261134;28;20071;-82
2022/12/08 11:47:41;;;;;;;23.55;9.07;;;10.50;47.30;;;;;;6249846;28;20037;-84
2022/12/08 11:50:55;;;;;;;20.85;9.23;;;10.60;47.20;;;;;;6262288;28;20053;-83
2022/12/08 11:54:35;;;;;;;20.13;8.75;;;10.70;47.00;;;;;;6242574;28;20033;-84
2022/12/08 11:57:36;;;;;;;26.25;10.05;;;10.70;46.70;;;;;;6151457;28;20154;-83
2022/12/08 12:00:37;;;;;;;23.27;9.40;;;10.80;46.70;;;;;;6142571;28;20035;-82
2022/12/08 12:03:46;;;;;;;22.20;9.05;;;10.80;46.50;;;;;;6151200;28;20360;-83
2022/12/08 12:06:59;;;;;;;22.85;9.55;;;10.90;46.60;;;;;;6157783;28;20035;-83
2022/12/08 12:10:26;;;;;;;22.98;10.45;;;11.00;46.60;;;;;;6164589;28;20039;-83
2022/12/08 12:13:48;;;;;;;24.60;9.52;;;11.00;46.40;;;;;;6159676;28;20097;-84
2022/12/08 12:17:04;;;;;;;18.67;8.95;;;11.00;46.00;;;;;;6177571;28;20047;-84
2022/12/08 12:20:17;;;;;;;22.02;9.15;;;10.90;46.10;;;;;;6164098;28;20034;-81
2022/12/08 12:23:20;;;;;;;20.85;8.80;;;10.90;46.20;;;;;;6173093;28;20042;-83
2022/12/08 12:26:30;;;;;;;22.27;7.65;;;11.00;46.30;;;;;;6154338;28;20039;-83
2022/12/08 12:29:37;;;;;;;16.45;7.10;;;11.10;46.50;;;;;;6204532;28;20046;-84
2022/12/08 12:32:45;;;;;;;16.00;8.07;;;11.10;46.10;;;;;;6210160;28;20069;-83
2022/12/08 12:35:47;;;;;;;21.25;8.30;;;11.10;45.80;;;;;;6222109;28;20348;-83
2022/12/08 12:39:08;;;;;;;20.77;7.65;;;11.10;45.80;;;;;;6220995;28;20589;-83
2022/12/08 12:42:37;;;;;;;20.92;8.43;;;11.00;46.10;;;;;;6220056;28;20037;-83
2022/12/08 12:45:43;;;;;;;25.83;8.40;;;11.00;46.10;;;;;;6215646;28;20057;-84
2022/12/08 12:48:45;;;;;;;26.83;11.25;;;11.00;46.00;;;;;;6237371;28;20029;-82
2022/12/08 12:51:52;;;;;;;18.50;7.65;;;11.00;46.10;;;;;;6239581;28;20462;-82
2022/12/08 12:54:56;;;;;;;26.45;10.27;;;11.00;46.00;;;;;;6231977;28;20030;-82
2022/12/08 12:57:58;;;;;;;15.75;8.05;;;11.00;45.90;;;;;;6232826;28;20049;-83
2022/12/08 13:01:13;;;;;;;26.83;8.75;;;11.10;46.10;;;;;;6190543;28;20046;-82
2022/12/08 13:04:16;;;;;;;17.80;6.75;;;11.00;45.90;;;;;;6232024;28;20042;-84
2022/12/08 13:07:23;;;;;;;16.80;7.70;;;11.00;46.10;;;;;;6230372;28;20046;-83
2022/12/08 13:10:31;;;;;;;19.42;9.13;;;11.00;46.10;;;;;;6232900;28;20045;-83
2022/12/08 13:13:32;;;;;;;20.65;8.15;;;11.00;46.10;;;;;;6219672;28;20069;-83
2022/12/08 13:16:37;;;;;;;20.33;9.38;;;11.10;46.10;;;;;;6233769;28;20049;-84
2022/12/08 13:19:40;;;;;;;17.75;8.13;;;11.10;46.10;;;;;;6219986;28;20030;-83
2022/12/08 13:22:52;;;;;;;19.60;7.70;;;11.20;46.00;;;;;;6226808;28;20045;-83
2022/12/08 13:26:15;;;;;;;17.08;8.35;;;11.20;45.90;;;;;;6224013;28;20340;-83
2022/12/08 13:29:16;;;;;;;19.33;8.75;;;11.10;46.00;;;;;;6246239;28;20488;-83
2022/12/08 13:32:51;;;;;;;17.75;6.90;;;11.10;45.80;;;;;;6243021;28;20033;-84
2022/12/08 13:36:20;;;;;;;14.90;7.10;;;11.00;45.90;;;;;;6259774;28;20367;-82
2022/12/08 13:39:27;;;;;;;16.55;7.75;;;10.90;46.00;;;;;;6226455;28;20048;-81
2022/12/08 13:42:43;;;;;;;17.98;8.00;;;10.80;46.20;;;;;;6269222;28;20355;-82
2022/12/08 13:45:45;;;;;;;15.68;6.63;;;10.80;46.40;;;;;;6242828;28;20068;-82
2022/12/08 13:48:51;;;;;;;18.70;8.13;;;10.80;46.60;;;;;;6241671;28;20030;-82
2022/12/08 13:51:54;;;;;;;18.63;7.13;;;10.80;46.30;;;;;;6233317;28;20037;-82
2022/12/08 13:54:56;;;;;;;13.70;6.78;;;10.80;46.30;;;;;;6243686;28;20040;-82
2022/12/08 13:57:57;;;;;;;15.75;7.95;;;10.70;46.30;;;;;;6238388;28;20048;-81
2022/12/08 14:01:06;;;;;;;22.15;7.40;;;10.60;46.50;;;;;;6240749;28;20029;-83
2022/12/08 14:04:18;;;;;;;12.75;6.35;;;10.50;46.70;;;;;;6237767;28;20029;-82
2022/12/08 14:07:20;;;;;;;14.52;6.13;;;10.50;46.90;;;;;;6218943;28;20094;-82
2022/12/08 14:10:28;;;;;;;14.63;6.40;;;10.50;46.90;;;;;;6218718;28;20034;-84
2022/12/08 14:13:31;;;;;;;12.30;5.07;;;10.60;47.00;;;;;;6217632;28;20077;-82
2022/12/08 14:16:48;;;;;;;12.40;5.32;;;10.60;46.60;;;;;;6219439;28;20045;-84
2022/12/08 14:20:00;;;;;;;13.65;5.35;;;10.50;46.40;;;;;;6247173;28;20450;-82
2022/12/08 14:23:07;;;;;;;15.43;5.20;;;10.50;46.20;;;;;;6245904;28;20463;-83
2022/12/08 14:26:11;;;;;;;12.57;5.78;;;10.50;46.30;;;;;;6263565;28;20045;-83
2022/12/08 14:29:34;;;;;;;11.10;4.82;;;10.40;46.30;;;;;;6262264;28;20042;-84
2022/12/08 14:32:49;;;;;;;11.68;5.45;;;10.40;46.40;;;;;;6261143;28;20441;-82
2022/12/08 14:35:54;;;;;;;22.63;7.05;;;10.30;46.40;;;;;;6237879;28;20038;-81
2022/12/08 14:38:56;;;;;;;18.52;7.45;;;10.20;46.60;;;;;;6224258;28;20025;-81
2022/12/08 14:41:59;;;;;;;14.30;6.32;;;10.20;46.90;;;;;;6222856;28;20038;-82
2022/12/08 14:45:08;;;;;;;16.25;6.15;;;10.20;47.10;;;;;;6224571;28;20041;-84
2022/12/08 14:48:27;;;;;;;;;;;10.20;47.10;;;;;;6245988;28;20042;-82
2022/12/08 14:51:32;;;;;;;15.73;6.70;;;10.20;47.20;;;;;;6244957;28;19927;-84
2022/12/08 14:54:33;;;;;;;18.65;7.78;;;10.20;47.30;;;;;;6261583;28;20037;-82
2022/12/08 14:57:36;;;;;;;20.02;8.02;;;10.20;47.50;;;;;;6263183;28;20489;-82
2022/12/08 15:00:55;;;;;;;27.58;7.63;;;10.20;47.60;;;;;;6247457;28;20454;-82
2022/12/08 15:04:10;;;;;;;17.30;6.95;;;10.20;47.80;;;;;;6217196;28;20095;-83
2022/12/08 15:07:13;;;;;;;23.00;8.20;;;10.10;47.90;;;;;;6239909;28;20053;-83
2022/12/08 15:10:14;;;;;;;16.83;6.95;;;10.10;48.00;;;;;;6236381;28;20055;-82
2022/12/08 15:13:25;;;;;;;21.05;7.55;;;10.10;48.10;;;;;;6258817;28;20387;-83
2022/12/08 15:16:33;;;;;;;18.75;7.68;;;10.00;48.30;;;;;;6250992;28;20049;-81
2022/12/08 15:19:34;;;;;;;18.45;7.13;;;10.00;48.40;;;;;;6248066;28;20038;-82
2022/12/08 15:22:35;;;;;;;19.90;7.70;;;10.00;48.50;;;;;;6247934;28;20041;-82
2022/12/08 15:25:36;;;;;;;19.45;7.25;;;10.10;48.60;;;;;;6246106;28;20049;-83
2022/12/08 15:28:39;;;;;;;17.92;8.48;;;10.10;48.60;;;;;;6246762;28;20648;-82
2022/12/08 15:31:40;;;;;;;17.65;6.47;;;10.10;48.70;;;;;;6246013;28;20091;-83
2022/12/08 15:34:42;;;;;;;20.65;7.60;;;10.10;48.80;;;;;;6262571;28;20037;-81
2022/12/08 15:37:43;;;;;;;23.48;7.82;;;10.00;49.00;;;;;;6246920;28;20041;-81
2022/12/08 15:40:44;;;;;;;24.65;8.50;;;10.00;49.10;;;;;;6245648;28;20223;-81
2022/12/08 15:43:45;;;;;;;25.88;7.40;;;10.00;49.30;;;;;;6272057;28;20611;-81
2022/12/08 15:46:46;;;;;;;21.48;8.25;;;9.90;49.30;;;;;;6238828;28;20044;-81
2022/12/08 15:49:48;;;;;;;21.45;8.10;;;10.00;49.50;;;;;;6243833;28;20422;-83
2022/12/08 15:52:50;;;;;;;20.83;9.15;;;10.00;49.60;;;;;;6260797;28;20052;-82
2022/12/08 15:55:52;;;;;;;18.67;8.52;;;10.00;49.70;;;;;;6251815;28;20528;-82
2022/12/08 15:58:53;;;;;;;22.73;8.73;;;10.00;49.80;;;;;;6222481;28;20048;-82
2022/12/08 16:01:54;;;;;;;24.35;8.50;;;9.90;49.90;;;;;;6249145;28;20045;-81
2022/12/08 16:04:56;;;;;;;24.58;9.10;;;9.90;50.00;;;;;;6247668;28;20406;-82
2022/12/08 16:07:57;;;;;;;22.63;9.25;;;9.90;50.00;;;;;;6263760;28;20074;-84